sensor_id;sensor_type;location;lat;lon;timestamp;pressure;altitude;pressure_sealevel;temperature;humidity
68891;BME280;55932;48.702;8.884;2023-04-28T00:00:51;95970;;;10.9;71
68891;BME280;55932;48.702;8.884;2023-04-28T00:05:49;95970;;;10.8;71.5
68891;BME280;55932;48.702;8.884;2023-04-28T00:10:55;95970;;;10.8;71.5
68891;BME280;55932;48.702;8.884;2023-04-28T00:13:25;95970;;;11;71
68891;BME280;55932;48.702;8.884;2023-04-28T00:18:19;95970;;;11.2;71
68891;BME280;55932;48.702;8.884;2023-04-28T00:20:50;95960;;;11.2;71
68891;BME280;55932;48.702;8.884;2023-04-28T00:23:21;95960;;;11.1;71
68891;BME280;55932;48.702;8.884;2023-04-28T00:25:58;95950;;;11.1;71
68891;BME280;55932;48.702;8.884;2023-04-28T00:28:29;95950;;;11;71.5
68891;BME280;55932;48.702;8.884;2023-04-28T00:31:10;95950;;;11.1;71.5
68891;BME280;55932;48.702;8.884;2023-04-28T00:36:00;95940;;;11.2;71
68891;BME280;55932;48.702;8.884;2023-04-28T00:38:25;95940;;;11.3;71
68891;BME280;55932;48.702;8.884;2023-04-28T00:40:55;95940;;;11.3;71
68891;BME280;55932;48.702;8.884;2023-04-28T00:43:26;95940;;;11.2;71
68891;BME280;55932;48.702;8.884;2023-04-28T00:45:57;95940;;;11.1;71.5
68891;BME280;55932;48.702;8.884;2023-04-28T00:48:31;95940;;;11.1;71.5
68891;BME280;55932;48.702;8.884;2023-04-28T00:50:59;95930;;;11.1;71
68891;BME280;55932;48.702;8.884;2023-04-28T00:53:36;95930;;;11.1;71
68891;BME280;55932;48.702;8.884;2023-04-28T00:56:06;95930;;;11.1;71
68891;BME280;55932;48.702;8.884;2023-04-28T00:58:43;95930;;;11;71
68891;BME280;55932;48.702;8.884;2023-04-28T01:01:14;95930;;;11.1;71
68891;BME280;55932;48.702;8.884;2023-04-28T01:03:39;95930;;;11.1;71
68891;BME280;55932;48.702;8.884;2023-04-28T01:08:38;95930;;;11.2;71
68891;BME280;55932;48.702;8.884;2023-04-28T01:11:08;95920;;;11.3;71
68891;BME280;55932;48.702;8.884;2023-04-28T01:13:38;95920;;;11.3;71
68891;BME280;55932;48.702;8.884;2023-04-28T01:16:15;95910;;;11.4;71
68891;BME280;55932;48.702;8.884;2023-04-28T01:21:09;95910;;;11.6;70.5
68891;BME280;55932;48.702;8.884;2023-04-28T01:23:39;95900;;;11.6;70.5
68891;BME280;55932;48.702;8.884;2023-04-28T01:28:33;95900;;;11.6;71
68891;BME280;55932;48.702;8.884;2023-04-28T01:31:05;95900;;;11.7;71
68891;BME280;55932;48.702;8.884;2023-04-28T01:33:36;95890;;;11.7;71
68891;BME280;55932;48.702;8.884;2023-04-28T01:35:59;95890;;;11.8;70.5
68891;BME280;55932;48.702;8.884;2023-04-28T01:43:32;95890;;;11.8;71
68891;BME280;55932;48.702;8.884;2023-04-28T01:46:03;95890;;;11.8;71
68891;BME280;55932;48.702;8.884;2023-04-28T01:48:33;95880;;;11.8;71
68891;BME280;55932;48.702;8.884;2023-04-28T01:51:04;95890;;;11.7;71
68891;BME280;55932;48.702;8.884;2023-04-28T01:56:12;95880;;;11.7;71
68891;BME280;55932;48.702;8.884;2023-04-28T01:58:43;95880;;;11.7;71
68891;BME280;55932;48.702;8.884;2023-04-28T02:03:38;95860;;;11.7;71
68891;BME280;55932;48.702;8.884;2023-04-28T02:11:11;95860;;;11.7;71
68891;BME280;55932;48.702;8.884;2023-04-28T02:13:41;95860;;;11.7;71
68891;BME280;55932;48.702;8.884;2023-04-28T02:16:12;95860;;;11.7;71
68891;BME280;55932;48.702;8.884;2023-04-28T02:18:43;95860;;;11.7;71
68891;BME280;55932;48.702;8.884;2023-04-28T02:23:50;95860;;;11.7;71
68891;BME280;55932;48.702;8.884;2023-04-28T02:26:23;95860;;;11.6;71
68891;BME280;55932;48.702;8.884;2023-04-28T02:28:53;95860;;;11.5;71
68891;BME280;55932;48.702;8.884;2023-04-28T02:41:20;95860;;;11.6;71
68891;BME280;55932;48.702;8.884;2023-04-28T02:43:50;95860;;;11.6;71
68891;BME280;55932;48.702;8.884;2023-04-28T02:46:21;95860;;;11.7;71
68891;BME280;55932;48.702;8.884;2023-04-28T02:48:52;95870;;;11.7;71
68891;BME280;55932;48.702;8.884;2023-04-28T02:53:59;95870;;;11.8;71
68891;BME280;55932;48.702;8.884;2023-04-28T02:56:31;95870;;;11.8;71
68891;BME280;55932;48.702;8.884;2023-04-28T02:59:02;95870;;;11.9;70.5
68891;BME280;55932;48.702;8.884;2023-04-28T03:01:26;95860;;;11.9;70.5
68891;BME280;55932;48.702;8.884;2023-04-28T03:08:58;95860;;;12;70.5
68891;BME280;55932;48.702;8.884;2023-04-28T03:11:29;95860;;;11.9;71
68891;BME280;55932;48.702;8.884;2023-04-28T03:14:00;95860;;;12.1;71
68891;BME280;55932;48.702;8.884;2023-04-28T03:16:31;95860;;;12.1;70.5
68891;BME280;55932;48.702;8.884;2023-04-28T03:19:01;95850;;;12.1;70.5
68891;BME280;55932;48.702;8.884;2023-04-28T03:21:32;95850;;;12.2;70.5
68891;BME280;55932;48.702;8.884;2023-04-28T03:24:03;95850;;;12.2;70.5
68891;BME280;55932;48.702;8.884;2023-04-28T03:26:40;95850;;;12.1;70.5
68891;BME280;55932;48.702;8.884;2023-04-28T03:29:11;95840;;;12.1;71
68891;BME280;55932;48.702;8.884;2023-04-28T03:31:49;95840;;;12.2;71
68891;BME280;55932;48.702;8.884;2023-04-28T03:34:19;95840;;;12.2;71
68891;BME280;55932;48.702;8.884;2023-04-28T03:41:52;95840;;;12.2;71
68891;BME280;55932;48.702;8.884;2023-04-28T03:44:23;95830;;;12.2;71
68891;BME280;55932;48.702;8.884;2023-04-28T03:49:16;95830;;;12.2;71
68891;BME280;55932;48.702;8.884;2023-04-28T03:51:47;95820;;;12.1;71
68891;BME280;55932;48.702;8.884;2023-04-28T03:54:18;95830;;;12.1;71
68891;BME280;55932;48.702;8.884;2023-04-28T03:56:49;95810;;;12.1;71
68891;BME280;55932;48.702;8.884;2023-04-28T03:59:26;95820;;;12.1;71
68891;BME280;55932;48.702;8.884;2023-04-28T04:01:56;95820;;;12.1;71
68891;BME280;55932;48.702;8.884;2023-04-28T04:06:50;95820;;;12.1;71
68891;BME280;55932;48.702;8.884;2023-04-28T04:09:23;95810;;;12;71
68891;BME280;55932;48.702;8.884;2023-04-28T04:11:53;95810;;;12;71
68891;BME280;55932;48.702;8.884;2023-04-28T04:14:23;95810;;;12;71
68891;BME280;55932;48.702;8.884;2023-04-28T04:16:54;95810;;;11.9;71.5
68891;BME280;55932;48.702;8.884;2023-04-28T04:19:25;95810;;;11.8;71.5
68891;BME280;55932;48.702;8.884;2023-04-28T04:31:52;95800;;;11.6;71.5
68891;BME280;55932;48.702;8.884;2023-04-28T04:34:23;95800;;;11.6;71.5
68891;BME280;55932;48.702;8.884;2023-04-28T04:36:54;95800;;;11.5;71.5
68891;BME280;55932;48.702;8.884;2023-04-28T04:39:24;95800;;;11.5;71.5
68891;BME280;55932;48.702;8.884;2023-04-28T04:41:55;95800;;;11.4;71.5
68891;BME280;55932;48.702;8.884;2023-04-28T04:44:26;95790;;;11.4;71.5
68891;BME280;55932;48.702;8.884;2023-04-28T04:46:57;95780;;;11.4;71.5
68891;BME280;55932;48.702;8.884;2023-04-28T04:49:28;95780;;;11.3;71.5
68891;BME280;55932;48.702;8.884;2023-04-28T04:51:58;95780;;;11.3;71.5
68891;BME280;55932;48.702;8.884;2023-04-28T04:54:35;95790;;;11.3;71.5
68891;BME280;55932;48.702;8.884;2023-04-28T04:57:13;95800;;;11.3;71
68891;BME280;55932;48.702;8.884;2023-04-28T04:59:44;95810;;;11.1;71
68891;BME280;55932;48.702;8.884;2023-04-28T05:04:46;95800;;;10.9;71
68891;BME280;55932;48.702;8.884;2023-04-28T05:07:17;95800;;;11;71
68891;BME280;55932;48.702;8.884;2023-04-28T05:09:42;95800;;;11;71.5
68891;BME280;55932;48.702;8.884;2023-04-28T05:14:50;95800;;;11.1;71.5
68891;BME280;55932;48.702;8.884;2023-04-28T05:17:20;95800;;;11.2;71
68891;BME280;55932;48.702;8.884;2023-04-28T05:19:50;95800;;;11.2;71
68891;BME280;55932;48.702;8.884;2023-04-28T05:24:44;95810;;;11.3;71
68891;BME280;55932;48.702;8.884;2023-04-28T05:27:15;95800;;;11.3;71
68891;BME280;55932;48.702;8.884;2023-04-28T05:29:48;95800;;;11.4;71
68891;BME280;55932;48.702;8.884;2023-04-28T05:32:24;95800;;;11.5;71
68891;BME280;55932;48.702;8.884;2023-04-28T05:37:13;95800;;;11.5;71
68891;BME280;55932;48.702;8.884;2023-04-28T05:39:43;95800;;;11.6;71
68891;BME280;55932;48.702;8.884;2023-04-28T05:42:14;95800;;;11.7;71
68891;BME280;55932;48.702;8.884;2023-04-28T05:44:45;95810;;;11.7;71
68891;BME280;55932;48.702;8.884;2023-04-28T05:47:16;95800;;;11.8;71
68891;BME280;55932;48.702;8.884;2023-04-28T05:49:46;95800;;;11.8;70.5
68891;BME280;55932;48.702;8.884;2023-04-28T05:52:17;95800;;;11.7;70.5
68891;BME280;55932;48.702;8.884;2023-04-28T05:55:01;95790;;;11.6;71
68891;BME280;55932;48.702;8.884;2023-04-28T05:57:31;95800;;;11.5;71
68891;BME280;55932;48.702;8.884;2023-04-28T06:02:32;95790;;;11.6;71
68891;BME280;55932;48.702;8.884;2023-04-28T06:04:56;95790;;;11.7;71
68891;BME280;55932;48.702;8.884;2023-04-28T06:07:27;95780;;;11.8;71
68891;BME280;55932;48.702;8.884;2023-04-28T06:09:58;95790;;;11.9;71
68891;BME280;55932;48.702;8.884;2023-04-28T06:20:07;95790;;;12.2;70.5
68891;BME280;55932;48.702;8.884;2023-04-28T06:22:47;95790;;;12.2;70.5
68891;BME280;55932;48.702;8.884;2023-04-28T06:25:08;95780;;;12.2;70.5
68891;BME280;55932;48.702;8.884;2023-04-28T06:27:56;95780;;;12.3;70.5
68891;BME280;55932;48.702;8.884;2023-04-28T06:32:38;95790;;;12.3;70.5
68891;BME280;55932;48.702;8.884;2023-04-28T06:35:09;95770;;;12.4;70.5
68891;BME280;55932;48.702;8.884;2023-04-28T06:37:39;95780;;;12.4;70.5
68891;BME280;55932;48.702;8.884;2023-04-28T06:40:10;95780;;;12.5;70.5
68891;BME280;55932;48.702;8.884;2023-04-28T06:42:40;95780;;;12.3;71
68891;BME280;55932;48.702;8.884;2023-04-28T06:45:10;95780;;;12.4;71
68891;BME280;55932;48.702;8.884;2023-04-28T06:47:42;95780;;;12.5;70.5
68891;BME280;55932;48.702;8.884;2023-04-28T06:50:06;95770;;;12.6;70.5
68891;BME280;55932;48.702;8.884;2023-04-28T06:55:02;95770;;;12.6;70.5
68891;BME280;55932;48.702;8.884;2023-04-28T06:57:32;95770;;;12.7;70.5
68891;BME280;55932;48.702;8.884;2023-04-28T07:00:04;95770;;;12.8;70.5
68891;BME280;55932;48.702;8.884;2023-04-28T07:02:34;95770;;;13;70
68891;BME280;55932;48.702;8.884;2023-04-28T07:05:05;95760;;;12.9;70.5
68891;BME280;55932;48.702;8.884;2023-04-28T07:07:35;95750;;;12.9;70
68891;BME280;55932;48.702;8.884;2023-04-28T07:17:38;95760;;;13.2;70
68891;BME280;55932;48.702;8.884;2023-04-28T07:22:46;95760;;;13.4;69.5
68891;BME280;55932;48.702;8.884;2023-04-28T07:25:17;95770;;;13.2;70
68891;BME280;55932;48.702;8.884;2023-04-28T07:30:12;95770;;;13.1;70
68891;BME280;55932;48.702;8.884;2023-04-28T07:32:43;95760;;;12.9;70
68891;BME280;55932;48.702;8.884;2023-04-28T07:35:13;95760;;;12.7;70
68891;BME280;55932;48.702;8.884;2023-04-28T07:37:44;95760;;;12.6;70.5
68891;BME280;55932;48.702;8.884;2023-04-28T07:45:16;95760;;;12.5;70.5
68891;BME280;55932;48.702;8.884;2023-04-28T07:47:48;95750;;;12.4;70.5
68891;BME280;55932;48.702;8.884;2023-04-28T07:50:18;95760;;;12.3;71
68891;BME280;55932;48.702;8.884;2023-04-28T07:52:56;95770;;;12.3;71
68891;BME280;55932;48.702;8.884;2023-04-28T07:55:26;95770;;;12.3;71
68891;BME280;55932;48.702;8.884;2023-04-28T08:00:22;95780;;;12.2;71
68891;BME280;55932;48.702;8.884;2023-04-28T08:02:52;95780;;;12.3;71
68891;BME280;55932;48.702;8.884;2023-04-28T08:05:23;95780;;;12.4;71
68891;BME280;55932;48.702;8.884;2023-04-28T08:12:56;95780;;;12.5;70.5
68891;BME280;55932;48.702;8.884;2023-04-28T08:15:30;95790;;;12.7;70.5
68891;BME280;55932;48.702;8.884;2023-04-28T08:17:57;95790;;;12.7;70.5
68891;BME280;55932;48.702;8.884;2023-04-28T08:20:35;95790;;;12.7;70.5
68891;BME280;55932;48.702;8.884;2023-04-28T08:23:06;95790;;;12.7;70.5
68891;BME280;55932;48.702;8.884;2023-04-28T08:25:36;95780;;;12.7;70.5
68891;BME280;55932;48.702;8.884;2023-04-28T08:28:01;95790;;;12.9;70.5
68891;BME280;55932;48.702;8.884;2023-04-28T08:30:31;95790;;;13.1;70
68891;BME280;55932;48.702;8.884;2023-04-28T08:33:02;95790;;;13.2;70
68891;BME280;55932;48.702;8.884;2023-04-28T08:35:33;95790;;;13.2;70
68891;BME280;55932;48.702;8.884;2023-04-28T08:43:05;95800;;;13.6;70
68891;BME280;55932;48.702;8.884;2023-04-28T08:48:22;95800;;;13.6;70
68891;BME280;55932;48.702;8.884;2023-04-28T08:50:37;95810;;;13.6;70
68891;BME280;55932;48.702;8.884;2023-04-28T08:53:08;95810;;;13.7;69.5
68891;BME280;55932;48.702;8.884;2023-04-28T08:58:16;95810;;;13.8;70
68891;BME280;55932;48.702;8.884;2023-04-28T09:00:46;95810;;;13.7;70
68891;BME280;55932;48.702;8.884;2023-04-28T09:03:18;95820;;;13.5;70
68891;BME280;55932;48.702;8.884;2023-04-28T09:05:49;95820;;;13.5;70
68891;BME280;55932;48.702;8.884;2023-04-28T09:08:27;95820;;;13.5;70.5
68891;BME280;55932;48.702;8.884;2023-04-28T09:13:34;95830;;;13.7;70
68891;BME280;55932;48.702;8.884;2023-04-28T09:15:58;95830;;;14;70
68891;BME280;55932;48.702;8.884;2023-04-28T09:26:02;95830;;;14.5;69
68891;BME280;55932;48.702;8.884;2023-04-28T09:28:25;95840;;;14.6;69.5
68891;BME280;55932;48.702;8.884;2023-04-28T09:30:56;95840;;;14.7;69.5
68891;BME280;55932;48.702;8.884;2023-04-28T09:36:04;95830;;;15.6;68
68891;BME280;55932;48.702;8.884;2023-04-28T09:38:41;95830;;;15.8;67.5
68891;BME280;55932;48.702;8.884;2023-04-28T09:43:35;95830;;;16.6;67
68891;BME280;55932;48.702;8.884;2023-04-28T09:46:00;95830;;;17;66.5
68891;BME280;55932;48.702;8.884;2023-04-28T09:48:32;95830;;;17.4;66.5
68891;BME280;55932;48.702;8.884;2023-04-28T09:53:26;95820;;;18;65.5
68891;BME280;55932;48.702;8.884;2023-04-28T09:55:59;95820;;;18.1;66
68891;BME280;55932;48.702;8.884;2023-04-28T09:58:28;95820;;;17.9;66
68891;BME280;55932;48.702;8.884;2023-04-28T10:00:58;95820;;;17.7;67
68891;BME280;55932;48.702;8.884;2023-04-28T10:03:29;95830;;;17.8;67
68891;BME280;55932;48.702;8.884;2023-04-28T10:16:03;95820;;;17.7;67.5
68891;BME280;55932;48.702;8.884;2023-04-28T10:23:46;95840;;;18.3;67
68891;BME280;55932;48.702;8.884;2023-04-28T10:26:08;95840;;;18.4;67
68891;BME280;55932;48.702;8.884;2023-04-28T10:31:20;95840;;;19;66.5
68891;BME280;55932;48.702;8.884;2023-04-28T10:33:50;95830;;;18.9;66.5
68891;BME280;55932;48.702;8.884;2023-04-28T10:39:16;95830;;;18.8;67
68891;BME280;55932;48.702;8.884;2023-04-28T10:41:31;95830;;;18.8;67
68891;BME280;55932;48.702;8.884;2023-04-28T10:43:46;95820;;;19.1;67
68891;BME280;55932;48.702;8.884;2023-04-28T10:54:08;95830;;;19;67
68891;BME280;55932;48.702;8.884;2023-04-28T10:56:15;95830;;;19;67
68891;BME280;55932;48.702;8.884;2023-04-28T10:58:45;95830;;;18.9;67.5
68891;BME280;55932;48.702;8.884;2023-04-28T11:01:26;95830;;;19;67.5
68891;BME280;55932;48.702;8.884;2023-04-28T11:03:49;95830;;;19;67.5
68891;BME280;55932;48.702;8.884;2023-04-28T11:06:18;95820;;;19.2;67.5
68891;BME280;55932;48.702;8.884;2023-04-28T11:08:54;95820;;;19.4;67.5
68891;BME280;55932;48.702;8.884;2023-04-28T11:11:25;95820;;;19.8;67
68891;BME280;55932;48.702;8.884;2023-04-28T11:14:31;95820;;;20.1;66.5
68891;BME280;55932;48.702;8.884;2023-04-28T11:16:33;95820;;;20.4;66.5
68891;BME280;55932;48.702;8.884;2023-04-28T11:21:30;95820;;;19.7;67.5
68891;BME280;55932;48.702;8.884;2023-04-28T11:24:00;95820;;;20.1;67
68891;BME280;55932;48.702;8.884;2023-04-28T11:29:08;95810;;;22;65.5
68891;BME280;55932;48.702;8.884;2023-04-28T11:31:37;95810;;;22.7;65
68891;BME280;55932;48.702;8.884;2023-04-28T11:34:18;95820;;;22.9;64.5
68891;BME280;55932;48.702;8.884;2023-04-28T11:36:38;95810;;;22;65.5
68891;BME280;55932;48.702;8.884;2023-04-28T11:39:09;95810;;;21;67
68891;BME280;55932;48.702;8.884;2023-04-28T11:41:40;95820;;;20.6;67.5
68891;BME280;55932;48.702;8.884;2023-04-28T11:44:12;95810;;;20.4;68
68891;BME280;55932;48.702;8.884;2023-04-28T11:49:05;95810;;;21.3;67.5
68891;BME280;55932;48.702;8.884;2023-04-28T11:54:13;95810;;;22.6;65.5
68891;BME280;55932;48.702;8.884;2023-04-28T11:56:43;95810;;;22;66
68891;BME280;55932;48.702;8.884;2023-04-28T11:59:14;95810;;;21.3;67
68891;BME280;55932;48.702;8.884;2023-04-28T12:01:48;95800;;;21.8;66.5
68891;BME280;55932;48.702;8.884;2023-04-28T12:04:28;95810;;;22.1;66.5
68891;BME280;55932;48.702;8.884;2023-04-28T12:06:38;95800;;;22;66.5
68891;BME280;55932;48.702;8.884;2023-04-28T12:09:16;95800;;;22.4;66.5
68891;BME280;55932;48.702;8.884;2023-04-28T12:12:13;95800;;;22.5;66.5
68891;BME280;55932;48.702;8.884;2023-04-28T12:16:42;95810;;;22;66.5
68891;BME280;55932;48.702;8.884;2023-04-28T12:19:14;95800;;;22.2;67
68891;BME280;55932;48.702;8.884;2023-04-28T12:21:56;95800;;;22.9;67.5
68891;BME280;55932;48.702;8.884;2023-04-28T12:24:17;95800;;;23.2;66.5
68891;BME280;55932;48.702;8.884;2023-04-28T12:26:46;95810;;;22.8;67
68891;BME280;55932;48.702;8.884;2023-04-28T12:29:47;95810;;;22.4;67
68891;BME280;55932;48.702;8.884;2023-04-28T12:31:48;95800;;;21.5;68
68891;BME280;55932;48.702;8.884;2023-04-28T12:34:18;95810;;;20.8;69
68891;BME280;55932;48.702;8.884;2023-04-28T12:44:15;95800;;;19.4;70.5
68891;BME280;55932;48.702;8.884;2023-04-28T12:46:46;95800;;;19.9;70
68891;BME280;55932;48.702;8.884;2023-04-28T12:49:16;95800;;;21.2;68.5
68891;BME280;55932;48.702;8.884;2023-04-28T12:51:47;95810;;;21.5;67.5
68891;BME280;55932;48.702;8.884;2023-04-28T12:54:18;95800;;;21.5;67
68891;BME280;55932;48.702;8.884;2023-04-28T12:56:55;95800;;;21.2;67.5
68891;BME280;55932;48.702;8.884;2023-04-28T12:59:26;95800;;;21.1;68
68891;BME280;55932;48.702;8.884;2023-04-28T13:01:58;95790;;;21;68
68891;BME280;55932;48.702;8.884;2023-04-28T13:04:21;95800;;;21.1;68
68891;BME280;55932;48.702;8.884;2023-04-28T13:11:53;95780;;;21.5;67.5
68891;BME280;55932;48.702;8.884;2023-04-28T13:14:24;95780;;;21.4;67.5
68891;BME280;55932;48.702;8.884;2023-04-28T13:16:55;95780;;;21.3;68
68891;BME280;55932;48.702;8.884;2023-04-28T13:19:25;95780;;;21.1;68
68891;BME280;55932;48.702;8.884;2023-04-28T13:21:56;95800;;;20.4;69
68891;BME280;55932;48.702;8.884;2023-04-28T13:24:34;95790;;;19.9;69.5
68891;BME280;55932;48.702;8.884;2023-04-28T13:27:05;95800;;;19.2;70
68891;BME280;55932;48.702;8.884;2023-04-28T13:29:36;95800;;;18.8;71
68891;BME280;55932;48.702;8.884;2023-04-28T13:32:06;95800;;;18.3;71.5
68891;BME280;55932;48.702;8.884;2023-04-28T13:39:32;95800;;;18.5;71
68891;BME280;55932;48.702;8.884;2023-04-28T13:42:09;95790;;;18.9;70
68891;BME280;55932;48.702;8.884;2023-04-28T13:44:33;95790;;;18.2;70
68891;BME280;55932;48.702;8.884;2023-04-28T13:47:04;95790;;;17.6;70
68891;BME280;55932;48.702;8.884;2023-04-28T13:49:35;95790;;;17.2;70.5
68891;BME280;55932;48.702;8.884;2023-04-28T13:52:06;95790;;;17.3;70.5
68891;BME280;55932;48.702;8.884;2023-04-28T13:54:36;95790;;;17.4;70
68891;BME280;55932;48.702;8.884;2023-04-28T13:57:07;95780;;;17.2;70.5
68891;BME280;55932;48.702;8.884;2023-04-28T14:07:10;95790;;;16.2;71.5
68891;BME280;55932;48.702;8.884;2023-04-28T14:12:18;95790;;;15.9;71.5
68891;BME280;55932;48.702;8.884;2023-04-28T14:14:49;95790;;;15.9;71.5
68891;BME280;55932;48.702;8.884;2023-04-28T14:17:20;95790;;;15.9;71.5
68891;BME280;55932;48.702;8.884;2023-04-28T14:19:44;95770;;;15.8;71.5
68891;BME280;55932;48.702;8.884;2023-04-28T14:22:15;95770;;;15.9;71.5
68891;BME280;55932;48.702;8.884;2023-04-28T14:24:45;95760;;;16;71.5
68891;BME280;55932;48.702;8.884;2023-04-28T14:34:48;95770;;;16.4;70.5
68891;BME280;55932;48.702;8.884;2023-04-28T14:37:19;95770;;;16.3;70.5
68891;BME280;55932;48.702;8.884;2023-04-28T14:39:50;95770;;;16;71
68891;BME280;55932;48.702;8.884;2023-04-28T14:42:28;95770;;;16;71
68891;BME280;55932;48.702;8.884;2023-04-28T14:44:58;95770;;;16;71
68891;BME280;55932;48.702;8.884;2023-04-28T14:47:30;95770;;;16.1;71
68891;BME280;55932;48.702;8.884;2023-04-28T14:49:53;95770;;;16;71
68891;BME280;55932;48.702;8.884;2023-04-28T14:52:24;95760;;;15.9;71
68891;BME280;55932;48.702;8.884;2023-04-28T14:54:55;95760;;;15.9;71
68891;BME280;55932;48.702;8.884;2023-04-28T15:04:58;95770;;;15.6;71
68891;BME280;55932;48.702;8.884;2023-04-28T15:07:28;95760;;;15.3;71.5
68891;BME280;55932;48.702;8.884;2023-04-28T15:10:13;95760;;;15.1;71.5
68891;BME280;55932;48.702;8.884;2023-04-28T15:12:43;95770;;;14.9;72
68891;BME280;55932;48.702;8.884;2023-04-28T15:15:13;95760;;;14.8;72
68891;BME280;55932;48.702;8.884;2023-04-28T15:20:13;95750;;;15;71.5
68891;BME280;55932;48.702;8.884;2023-04-28T15:22:37;95750;;;15.2;71
68891;BME280;55932;48.702;8.884;2023-04-28T15:25:08;95760;;;15.2;71
68891;BME280;55932;48.702;8.884;2023-04-28T15:27:40;95750;;;15.3;71
68891;BME280;55932;48.702;8.884;2023-04-28T15:30:18;95760;;;15.3;71
68891;BME280;55932;48.702;8.884;2023-04-28T15:32:42;95750;;;15.3;71
68891;BME280;55932;48.702;8.884;2023-04-28T15:35:12;95750;;;15.4;71
68891;BME280;55932;48.702;8.884;2023-04-28T15:37:44;95750;;;15.5;71
68891;BME280;55932;48.702;8.884;2023-04-28T15:40:15;95740;;;15.6;71
68891;BME280;55932;48.702;8.884;2023-04-28T15:45:09;95740;;;15.5;71
68891;BME280;55932;48.702;8.884;2023-04-28T15:47:41;95740;;;15.5;71
68891;BME280;55932;48.702;8.884;2023-04-28T15:55:13;95740;;;15.2;71.5
68891;BME280;55932;48.702;8.884;2023-04-28T15:57:44;95740;;;15.1;71.5
68891;BME280;55932;48.702;8.884;2023-04-28T16:00:14;95750;;;15;71.5
68891;BME280;55932;48.702;8.884;2023-04-28T16:05:22;95740;;;14.8;71.5
68891;BME280;55932;48.702;8.884;2023-04-28T16:07:53;95730;;;14.8;71.5
68891;BME280;55932;48.702;8.884;2023-04-28T16:10:24;95720;;;14.8;71.5
68891;BME280;55932;48.702;8.884;2023-04-28T16:12:55;95720;;;14.8;71.5
68891;BME280;55932;48.702;8.884;2023-04-28T16:15:26;95720;;;15;71.5
68891;BME280;55932;48.702;8.884;2023-04-28T16:18:03;95720;;;15.2;71.5
68891;BME280;55932;48.702;8.884;2023-04-28T16:20:35;95730;;;15.5;70.5
68891;BME280;55932;48.702;8.884;2023-04-28T16:22:58;95730;;;15.5;70.5
68891;BME280;55932;48.702;8.884;2023-04-28T16:25:30;95730;;;15.5;70.5
68891;BME280;55932;48.702;8.884;2023-04-28T16:28:01;95730;;;15.6;71
68891;BME280;55932;48.702;8.884;2023-04-28T16:30:32;95730;;;15.6;70.5
68891;BME280;55932;48.702;8.884;2023-04-28T16:33:03;95730;;;15.6;70.5
68891;BME280;55932;48.702;8.884;2023-04-28T16:35:32;95740;;;15.6;70.5
68891;BME280;55932;48.702;8.884;2023-04-28T16:45:30;95750;;;15.4;71
68891;BME280;55932;48.702;8.884;2023-04-28T16:50:31;95750;;;15.5;71
68891;BME280;55932;48.702;8.884;2023-04-28T16:53:02;95760;;;15.6;71
68891;BME280;55932;48.702;8.884;2023-04-28T16:55:34;95750;;;15.8;70.5
68891;BME280;55932;48.702;8.884;2023-04-28T17:05:36;95740;;;15.8;70.5
68891;BME280;55932;48.702;8.884;2023-04-28T17:08:07;95730;;;16;70.5
68891;BME280;55932;48.702;8.884;2023-04-28T17:10:37;95730;;;16.1;70.5
68891;BME280;55932;48.702;8.884;2023-04-28T17:13:08;95710;;;16.4;70
68891;BME280;55932;48.702;8.884;2023-04-28T17:15:52;95710;;;16.6;69.5
68891;BME280;55932;48.702;8.884;2023-04-28T17:18:16;95710;;;16.7;69
68891;BME280;55932;48.702;8.884;2023-04-28T17:20:47;95710;;;16.7;69.5
68891;BME280;55932;48.702;8.884;2023-04-28T17:23:18;95720;;;16.6;69.5
68891;BME280;55932;48.702;8.884;2023-04-28T17:25:49;95720;;;16.4;70
68891;BME280;55932;48.702;8.884;2023-04-28T17:28:20;95730;;;16.3;70
68891;BME280;55932;48.702;8.884;2023-04-28T17:33:29;95730;;;15.8;71
68891;BME280;55932;48.702;8.884;2023-04-28T17:41:07;95730;;;15.5;71.5
68891;BME280;55932;48.702;8.884;2023-04-28T17:43:44;95730;;;15.4;71.5
68891;BME280;55932;48.702;8.884;2023-04-28T17:46:01;95730;;;15.3;71.5
68891;BME280;55932;48.702;8.884;2023-04-28T17:48:31;95730;;;15.2;72
68891;BME280;55932;48.702;8.884;2023-04-28T17:51:01;95730;;;15.1;72
68891;BME280;55932;48.702;8.884;2023-04-28T17:55:55;95740;;;14.8;72.5
68891;BME280;55932;48.702;8.884;2023-04-28T17:58:25;95730;;;14.8;72.5
68891;BME280;55932;48.702;8.884;2023-04-28T18:00:58;95740;;;14.8;72
68891;BME280;55932;48.702;8.884;2023-04-28T18:03:34;95740;;;14.7;72
68891;BME280;55932;48.702;8.884;2023-04-28T18:06:05;95740;;;14.7;72
68891;BME280;55932;48.702;8.884;2023-04-28T18:08:29;95730;;;14.6;72.5
68891;BME280;55932;48.702;8.884;2023-04-28T18:13:24;95740;;;14.4;72.5
68891;BME280;55932;48.702;8.884;2023-04-28T18:15:54;95750;;;14.4;72.5
68891;BME280;55932;48.702;8.884;2023-04-28T18:18:25;95750;;;14.3;72.5
68891;BME280;55932;48.702;8.884;2023-04-28T18:20:57;95770;;;14.2;72.5
68891;BME280;55932;48.702;8.884;2023-04-28T18:23:27;95770;;;14.1;72.5
68891;BME280;55932;48.702;8.884;2023-04-28T18:25:57;95770;;;14;73
68891;BME280;55932;48.702;8.884;2023-04-28T18:36:07;95780;;;13.8;73
68891;BME280;55932;48.702;8.884;2023-04-28T18:38:38;95780;;;13.7;73
68891;BME280;55932;48.702;8.884;2023-04-28T18:41:11;95780;;;13.6;73
68891;BME280;55932;48.702;8.884;2023-04-28T18:46:17;95780;;;13.2;73.5
68891;BME280;55932;48.702;8.884;2023-04-28T18:48:47;95780;;;13.2;73.5
68891;BME280;55932;48.702;8.884;2023-04-28T18:51:11;95790;;;13.1;73.5
68891;BME280;55932;48.702;8.884;2023-04-28T18:53:42;95790;;;13.2;73.5
68891;BME280;55932;48.702;8.884;2023-04-28T18:56:13;95790;;;13.4;73.5
68891;BME280;55932;48.702;8.884;2023-04-28T18:58:50;95790;;;13.5;73
68891;BME280;55932;48.702;8.884;2023-04-28T19:03:58;95800;;;13.5;73
68891;BME280;55932;48.702;8.884;2023-04-28T19:06:22;95800;;;13.4;73
68891;BME280;55932;48.702;8.884;2023-04-28T19:08:47;95800;;;13.3;73.5
68891;BME280;55932;48.702;8.884;2023-04-28T19:13:47;95810;;;13.2;73.5
68891;BME280;55932;48.702;8.884;2023-04-28T19:16:25;95810;;;13.1;73.5
68891;BME280;55932;48.702;8.884;2023-04-28T19:18:56;95810;;;13.1;73.5
68891;BME280;55932;48.702;8.884;2023-04-28T19:23:51;95810;;;13;73.5